Time;durP1;ratioP1;P1;durP2;ratioP2;P2;SDS_P1;SDS_P2;PMS_P1;PMS_P2;Temp;Humidity;BMP_temperature;BMP_pressure;BME280_temperature;BME280_humidity;BME280_pressure;Samples;Min_cycle;Max_cycle;Signal;HPM_P1;HPM_P2
2023/05/27 00:01:53;;;;;;;11.10;3.08;;;9.20;99.90;;;;;;4964734;28;20133;-69
2023/05/27 00:04:18;;;;;;;9.10;3.13;;;9.30;99.90;;;;;;4957752;28;20190;-69
2023/05/27 00:06:44;;;;;;;5.90;2.37;;;9.20;99.90;;;;;;4962641;28;20045;-69
2023/05/27 00:09:10;;;;;;;13.60;3.00;;;9.20;99.90;;;;;;4961987;28;20107;-69
2023/05/27 00:11:35;;;;;;;16.07;2.23;;;9.10;99.90;;;;;;4963696;28;20508;-69
2023/05/27 00:14:01;;;;;;;13.37;2.93;;;9.10;99.90;;;;;;4964041;28;20481;-69
2023/05/27 00:16:27;;;;;;;6.67;1.77;;;9.10;99.90;;;;;;4961483;28;20481;-69
2023/05/27 00:18:53;;;;;;;;;;;9.10;99.90;;;;;;4961783;28;20227;-69
2023/05/27 00:21:18;;;;;;;7.07;2.38;;;9.00;99.90;;;;;;4953881;28;20058;-69
2023/05/27 00:23:46;;;;;;;10.50;2.90;;;9.00;99.90;;;;;;4955033;28;20043;-69
2023/05/27 00:26:11;;;;;;;15.45;3.17;;;9.00;99.90;;;;;;4957262;28;20047;-69
2023/05/27 00:28:37;;;;;;;11.70;2.60;;;9.00;99.90;;;;;;4955040;28;20402;-69
2023/05/27 00:31:03;;;;;;;12.13;3.00;;;9.00;99.90;;;;;;4963143;28;20142;-69
2023/05/27 00:33:28;;;;;;;7.53;2.70;;;9.00;99.90;;;;;;4952006;28;20431;-69
2023/05/27 00:35:54;;;;;;;8.53;2.40;;;9.00;99.90;;;;;;4962153;28;20039;-69
2023/05/27 00:38:20;;;;;;;11.30;3.17;;;9.00;99.90;;;;;;4960104;28;20524;-69
2023/05/27 00:40:46;;;;;;;11.60;3.40;;;9.00;99.90;;;;;;4951307;28;20043;-69
2023/05/27 00:43:12;;;;;;;11.38;2.67;;;8.90;99.90;;;;;;4956452;28;20086;-69
2023/05/27 00:45:37;;;;;;;8.97;2.47;;;8.90;99.90;;;;;;4960692;28;20050;-69
2023/05/27 00:48:04;;;;;;;14.20;3.40;;;9.00;99.90;;;;;;4964070;28;20053;-69
2023/05/27 00:50:30;;;;;;;13.95;4.13;;;9.00;99.90;;;;;;5008886;23;20069;-69
2023/05/27 00:52:56;;;;;;;13.55;3.00;;;8.90;99.90;;;;;;4981822;28;20046;-69
2023/05/27 00:55:23;;;;;;;7.25;2.95;;;8.90;99.90;;;;;;4982997;28;20132;-69
2023/05/27 00:57:49;;;;;;;8.60;2.83;;;8.90;99.90;;;;;;4982403;28;20684;-69
2023/05/27 01:00:15;;;;;;;8.63;3.40;;;8.80;99.90;;;;;;4975437;28;20043;-69
2023/05/27 01:02:42;;;;;;;12.13;3.13;;;8.80;99.90;;;;;;4977848;28;20462;-69
2023/05/27 01:05:14;;;;;;;8.65;2.85;;;8.80;99.90;;;;;;4982520;28;20482;-69
2023/05/27 01:08:19;;;;;;;11.05;2.88;;;8.80;99.90;;;;;;4978272;28;20046;-69
2023/05/27 01:10:49;;;;;;;8.45;2.92;;;8.80;99.90;;;;;;4976633;28;20132;-69
2023/05/27 01:13:40;;;;;;;12.32;3.72;;;8.70;99.90;;;;;;4974225;28;20050;-69
2023/05/27 01:16:15;;;;;;;16.50;3.85;;;8.70;99.90;;;;;;4977432;28;20046;-69
2023/05/27 01:18:44;;;;;;;10.23;3.17;;;8.70;99.90;;;;;;4976856;28;20042;-69
2023/05/27 01:21:18;;;;;;;7.70;2.83;;;8.70;99.90;;;;;;4976354;28;20392;-68
2023/05/27 01:23:48;;;;;;;8.65;2.75;;;8.60;99.90;;;;;;4974855;28;20047;-69
2023/05/27 01:26:13;;;;;;;12.88;2.95;;;8.70;99.90;;;;;;4976828;28;20068;-69
2023/05/27 01:28:39;;;;;;;17.70;4.00;;;8.60;99.90;;;;;;4979419;28;20042;-68
2023/05/27 01:31:31;;;;;;;9.45;2.38;;;8.70;99.90;;;;;;4975584;28;20065;-68
2023/05/27 01:34:05;;;;;;;10.73;2.67;;;8.60;99.90;;;;;;4977577;28;20058;-69
2023/05/27 01:36:37;;;;;;;12.13;2.55;;;8.60;99.90;;;;;;4973770;28;20438;-69
2023/05/27 01:39:05;;;;;;;8.90;2.90;;;8.60;99.90;;;;;;4978537;28;20055;-68
2023/05/27 01:41:31;;;;;;;8.32;2.53;;;8.60;99.90;;;;;;4976616;28;20042;-69
2023/05/27 01:43:57;;;;;;;12.90;2.55;;;8.60;99.90;;;;;;4980743;28;20065;-68
2023/05/27 01:46:23;;;;;;;11.30;2.78;;;8.60;99.90;;;;;;4976418;28;20137;-69
2023/05/27 01:48:48;;;;;;;14.60;2.75;;;8.60;99.90;;;;;;4981410;28;20587;-68
2023/05/27 01:51:16;;;;;;;15.07;3.13;;;8.60;99.90;;;;;;4981749;28;20043;-68
2023/05/27 01:53:42;;;;;;;8.38;2.25;;;8.60;99.90;;;;;;4978490;28;20042;-69
2023/05/27 01:56:08;;;;;;;8.10;2.30;;;8.60;99.90;;;;;;4980354;28;20432;-68
2023/05/27 01:58:33;;;;;;;9.53;2.10;;;8.60;99.90;;;;;;4980345;28;20173;-68
2023/05/27 02:00:59;;;;;;;7.93;2.67;;;8.60;99.90;;;;;;4978595;28;20515;-68
2023/05/27 02:03:24;;;;;;;9.27;2.77;;;8.60;99.90;;;;;;4969789;28;20058;-68
2023/05/27 02:05:50;;;;;;;15.10;2.53;;;8.60;99.90;;;;;;4972700;28;20047;-68
2023/05/27 02:08:15;;;;;;;10.53;3.30;;;8.60;99.90;;;;;;4973886;28;20129;-69
2023/05/27 02:10:41;;;;;;;9.23;2.47;;;8.60;99.90;;;;;;4977046;28;20064;-68
2023/05/27 02:13:07;;;;;;;8.07;2.60;;;8.60;99.90;;;;;;4977536;28;20089;-69
2023/05/27 02:15:32;;;;;;;12.57;2.70;;;8.60;99.90;;;;;;4982018;28;20541;-68
2023/05/27 02:17:58;;;;;;;7.13;2.50;;;8.50;99.90;;;;;;4979847;28;20050;-69
2023/05/27 02:20:24;;;;;;;10.07;3.07;;;8.50;99.90;;;;;;4979364;28;20038;-69
2023/05/27 02:22:50;;;;;;;8.73;2.05;;;8.50;99.90;;;;;;4978660;28;20125;-68
2023/05/27 02:25:16;;;;;;;13.65;2.47;;;8.50;99.90;;;;;;4978993;28;20042;-68
2023/05/27 02:27:43;;;;;;;10.40;3.00;;;8.50;99.90;;;;;;4979919;28;20050;-68
2023/05/27 02:30:10;;;;;;;9.90;2.42;;;8.40;99.90;;;;;;4979983;28;20122;-68
2023/05/27 02:32:35;;;;;;;7.38;2.80;;;8.40;99.90;;;;;;4975072;28;20081;-68
2023/05/27 02:35:02;;;;;;;10.00;2.47;;;8.40;99.90;;;;;;4971810;28;20520;-68
2023/05/27 02:37:28;;;;;;;8.10;2.47;;;8.40;99.90;;;;;;4972137;28;20073;-68
2023/05/27 02:39:55;;;;;;;7.97;2.83;;;8.40;99.90;;;;;;4979396;28;20540;-68
2023/05/27 02:42:23;;;;;;;9.10;2.90;;;8.30;99.90;;;;;;4977455;28;20050;-68
2023/05/27 02:44:51;;;;;;;11.77;2.70;;;8.30;99.90;;;;;;4983260;28;20137;-69
2023/05/27 02:47:17;;;;;;;13.03;2.70;;;8.30;99.90;;;;;;4979936;28;20451;-69
2023/05/27 02:49:43;;;;;;;10.23;2.40;;;8.30;99.90;;;;;;4978365;28;20074;-68
2023/05/27 02:52:08;;;;;;;9.30;2.50;;;8.30;99.90;;;;;;4979175;28;20058;-68
2023/05/27 02:54:35;;;;;;;12.00;2.40;;;8.30;99.90;;;;;;4977998;28;20039;-68
2023/05/27 02:57:03;;;;;;;7.35;1.83;;;8.30;99.90;;;;;;4976939;28;20129;-69
2023/05/27 02:59:28;;;;;;;12.23;2.70;;;8.40;99.90;;;;;;4978490;28;20052;-68
2023/05/27 03:01:54;;;;;;;7.17;1.97;;;8.40;99.90;;;;;;4981917;28;20121;-68
2023/05/27 03:04:21;;;;;;;9.03;2.17;;;8.40;99.90;;;;;;4982811;28;20116;-68
2023/05/27 03:06:47;;;;;;;9.65;2.78;;;8.40;99.90;;;;;;4972548;28;20097;-68
2023/05/27 03:09:15;;;;;;;9.23;2.58;;;8.40;99.90;;;;;;4974875;28;20066;-68
2023/05/27 03:11:41;;;;;;;11.60;2.72;;;8.40;99.90;;;;;;4975934;28;20620;-68
2023/05/27 03:14:06;;;;;;;11.80;2.37;;;8.50;99.90;;;;;;4979068;28;20054;-69
2023/05/27 03:16:32;;;;;;;12.53;2.90;;;8.50;99.90;;;;;;4983548;28;20411;-69
2023/05/27 03:18:58;;;;;;;9.10;2.67;;;8.50;99.90;;;;;;4978913;28;20051;-68
2023/05/27 03:21:23;;;;;;;12.80;2.77;;;8.50;99.90;;;;;;4981697;28;20097;-68
2023/05/27 03:23:49;;;;;;;7.63;2.47;;;8.50;99.90;;;;;;4983642;28;20104;-68
2023/05/27 03:26:15;;;;;;;10.77;3.07;;;8.60;99.90;;;;;;4984371;28;20551;-68
2023/05/27 03:28:40;;;;;;;10.83;2.70;;;8.60;99.90;;;;;;4980677;28;20126;-68
2023/05/27 03:31:06;;;;;;;8.07;2.53;;;8.60;99.90;;;;;;4979768;28;20523;-68
2023/05/27 03:33:32;;;;;;;16.87;2.90;;;8.70;99.90;;;;;;4983308;28;20128;-68
2023/05/27 03:35:57;;;;;;;6.33;2.00;;;8.70;99.90;;;;;;4969778;28;20761;-68
2023/05/27 03:38:23;;;;;;;9.10;2.87;;;8.70;99.90;;;;;;4977850;28;20074;-68
2023/05/27 03:40:49;;;;;;;11.67;2.53;;;8.70;99.90;;;;;;4982179;28;20288;-68
2023/05/27 03:43:14;;;;;;;13.33;3.20;;;8.70;99.90;;;;;;4976029;28;20272;-68
2023/05/27 03:45:40;;;;;;;10.50;2.50;;;8.80;99.90;;;;;;4987010;28;20037;-68
2023/05/27 03:48:06;;;;;;;12.03;2.67;;;8.80;99.90;;;;;;4977166;28;20043;-68
2023/05/27 03:50:32;;;;;;;8.73;2.43;;;8.90;99.90;;;;;;4973574;28;20038;-68
2023/05/27 03:52:58;;;;;;;9.95;3.25;;;8.90;99.90;;;;;;4979921;28;20041;-68
2023/05/27 03:55:24;;;;;;;9.30;3.33;;;9.00;99.90;;;;;;4980648;28;20038;-68
2023/05/27 03:57:53;;;;;;;15.30;3.15;;;9.00;99.90;;;;;;4979890;28;20050;-69
2023/05/27 04:00:18;;;;;;;15.30;3.00;;;9.10;99.90;;;;;;4979855;28;20112;-69
2023/05/27 04:02:44;;;;;;;9.02;2.58;;;9.10;99.90;;;;;;4979408;28;20477;-69
2023/05/27 04:05:10;;;;;;;10.60;2.97;;;9.10;99.90;;;;;;4996150;28;20130;-69
2023/05/27 04:07:36;;;;;;;10.90;2.90;;;9.10;99.90;;;;;;4977730;28;20400;-69
2023/05/27 04:10:02;;;;;;;12.17;2.40;;;9.20;99.90;;;;;;4982042;28;20142;-69
2023/05/27 04:12:28;;;;;;;;;;;9.20;99.90;;;;;;4995917;28;20305;-69
2023/05/27 04:14:53;;;;;;;6.35;2.22;;;9.20;99.90;;;;;;4975776;28;19918;-69
2023/05/27 04:17:19;;;;;;;10.83;2.93;;;9.30;99.90;;;;;;4976460;28;20046;-69
2023/05/27 04:19:48;;;;;;;9.87;2.87;;;9.30;99.90;;;;;;4981236;28;20105;-69
2023/05/27 04:22:14;;;;;;;12.20;3.35;;;9.30;99.90;;;;;;4976111;28;20421;-69
2023/05/27 04:24:40;;;;;;;9.25;2.45;;;9.40;99.90;;;;;;5000027;28;20042;-69
2023/05/27 04:27:06;;;;;;;11.50;2.60;;;9.40;99.90;;;;;;4970290;28;20066;-69
2023/05/27 04:29:33;;;;;;;9.82;2.60;;;9.40;99.90;;;;;;4982153;28;20505;-69
2023/05/27 04:31:58;;;;;;;11.70;2.78;;;9.50;99.90;;;;;;4983941;28;20473;-69
2023/05/27 04:34:25;;;;;;;12.77;2.25;;;9.50;99.90;;;;;;4976310;28;20088;-69
2023/05/27 04:36:51;;;;;;;13.85;2.88;;;9.50;99.90;;;;;;4983321;28;20062;-69
2023/05/27 04:39:17;;;;;;;11.97;2.83;;;9.50;99.90;;;;;;4982807;28;20420;-69
2023/05/27 04:41:44;;;;;;;13.33;2.97;;;9.50;99.90;;;;;;4983614;28;20065;-69
2023/05/27 04:44:11;;;;;;;13.40;3.03;;;9.60;99.90;;;;;;4978130;28;20075;-69
2023/05/27 04:46:38;;;;;;;8.23;2.22;;;9.60;99.90;;;;;;4980563;28;20062;-68
2023/05/27 04:49:04;;;;;;;8.98;2.70;;;9.60;99.90;;;;;;4978897;28;20049;-69
2023/05/27 04:51:30;;;;;;;13.65;3.38;;;9.60;99.90;;;;;;4977324;28;20584;-69
2023/05/27 04:53:56;;;;;;;9.13;3.60;;;9.70;99.90;;;;;;4983412;28;20070;-69
2023/05/27 04:56:21;;;;;;;9.27;2.80;;;9.70;99.90;;;;;;4981175;28;20422;-69
2023/05/27 04:58:50;;;;;;;8.83;2.97;;;9.70;99.90;;;;;;4983619;28;20137;-69
2023/05/27 05:01:21;;;;;;;8.65;3.20;;;9.70;99.90;;;;;;4983749;28;20058;-69
2023/05/27 05:04:10;;;;;;;10.57;3.00;;;9.80;99.90;;;;;;4972513;28;20055;-69
2023/05/27 05:06:37;;;;;;;12.48;3.38;;;9.80;99.90;;;;;;4960545;28;20042;-69
2023/05/27 05:09:04;;;;;;;10.48;3.05;;;9.90;99.90;;;;;;4979814;28;20137;-69
2023/05/27 05:11:30;;;;;;;12.20;3.85;;;10.00;99.90;;;;;;4980995;28;20113;-72
2023/05/27 05:13:56;;;;;;;8.73;2.77;;;10.00;99.90;;;;;;4975319;28;20046;-69
2023/05/27 05:16:21;;;;;;;8.35;2.75;;;10.10;99.90;;;;;;4982471;28;20045;-69
2023/05/27 05:18:47;;;;;;;9.67;3.27;;;10.10;99.90;;;;;;4978550;28;20113;-69
2023/05/27 05:21:13;;;;;;;15.00;2.97;;;10.20;99.90;;;;;;4976670;28;20120;-69
2023/05/27 05:23:39;;;;;;;14.23;3.00;;;10.20;99.90;;;;;;4974318;28;20092;-69
2023/05/27 05:26:06;;;;;;;12.40;2.78;;;10.30;99.90;;;;;;4977206;28;20077;-69
2023/05/27 05:28:32;;;;;;;;;;;10.30;99.90;;;;;;4983971;28;20061;-68
2023/05/27 05:30:58;;;;;;;15.55;2.53;;;10.30;99.90;;;;;;4978550;28;19928;-69
2023/05/27 05:33:24;;;;;;;11.50;2.80;;;10.40;99.90;;;;;;4979578;28;20356;-69
2023/05/27 05:35:49;;;;;;;8.73;2.63;;;10.50;99.90;;;;;;4977542;28;20050;-69
2023/05/27 05:38:18;;;;;;;13.53;2.87;;;10.50;99.90;;;;;;4980052;28;20116;-69
2023/05/27 05:40:48;;;;;;;15.55;2.83;;;10.60;99.90;;;;;;4981724;28;20053;-69
2023/05/27 05:43:14;;;;;;;10.05;2.72;;;10.60;99.90;;;;;;4979712;28;20050;-69
2023/05/27 05:45:40;;;;;;;12.98;3.42;;;10.70;99.90;;;;;;4973818;28;20452;-69
2023/05/27 05:48:05;;;;;;;15.83;2.57;;;10.70;99.90;;;;;;4980106;28;20145;-69
2023/05/27 05:50:32;;;;;;;10.97;3.47;;;10.70;99.90;;;;;;4977166;28;20034;-69
2023/05/27 05:52:58;;;;;;;10.93;2.60;;;10.80;99.90;;;;;;4973154;28;20058;-69
2023/05/27 05:55:23;;;;;;;18.52;3.35;;;10.80;99.90;;;;;;4980699;28;20042;-69
2023/05/27 05:57:49;;;;;;;12.47;2.80;;;10.80;99.90;;;;;;4982423;28;20051;-69
2023/05/27 06:00:15;;;;;;;10.48;2.95;;;11.00;99.90;;;;;;4980519;28;20125;-69
2023/05/27 06:02:43;;;;;;;9.07;3.22;;;11.00;99.90;;;;;;4986254;28;20042;-69
2023/05/27 06:05:09;;;;;;;8.40;2.95;;;11.10;99.90;;;;;;4978093;28;20052;-69
2023/05/27 06:07:34;;;;;;;11.85;2.80;;;11.10;99.90;;;;;;4981763;28;20043;-69
2023/05/27 06:10:00;;;;;;;13.87;3.23;;;11.20;99.90;;;;;;4975464;28;20100;-69
2023/05/27 06:12:26;;;;;;;13.68;2.60;;;11.40;99.90;;;;;;4982040;28;20516;-69
2023/05/27 06:14:54;;;;;;;6.87;2.43;;;11.40;99.90;;;;;;4980260;28;20061;-69
2023/05/27 06:17:19;;;;;;;9.32;2.55;;;11.40;99.90;;;;;;4975921;28;20046;-69
2023/05/27 06:19:45;;;;;;;9.97;3.07;;;11.50;99.90;;;;;;4980262;28;20069;-69
2023/05/27 06:22:10;;;;;;;13.10;2.27;;;11.50;99.90;;;;;;4982218;28;20359;-69
2023/05/27 06:24:36;;;;;;;11.63;2.87;;;11.60;99.90;;;;;;4969230;28;20074;-69
2023/05/27 06:27:02;;;;;;;8.90;2.42;;;11.60;99.90;;;;;;4979782;28;20502;-69
2023/05/27 06:29:27;;;;;;;7.87;2.63;;;11.70;99.90;;;;;;4989044;28;20042;-69
2023/05/27 06:31:54;;;;;;;10.20;3.03;;;11.80;99.90;;;;;;4985582;28;20076;-68
2023/05/27 06:34:20;;;;;;;;;;;11.80;99.90;;;;;;4981816;28;20302;-68
2023/05/27 06:36:48;;;;;;;11.23;2.35;;;11.90;99.90;;;;;;4990078;28;20055;-68
2023/05/27 06:39:16;;;;;;;14.00;2.38;;;12.00;99.90;;;;;;4982140;28;20094;-68
2023/05/27 06:41:42;;;;;;;10.85;2.70;;;12.00;99.90;;;;;;4977034;28;20042;-69
2023/05/27 06:44:07;;;;;;;9.00;2.53;;;12.10;99.90;;;;;;4985488;28;20129;-69
2023/05/27 06:46:33;;;;;;;14.53;2.60;;;12.20;99.90;;;;;;4979767;28;20130;-68
2023/05/27 06:48:59;;;;;;;11.93;2.63;;;12.20;99.90;;;;;;4985531;28;20467;-68
2023/05/27 06:54:39;;;;;;;12.05;2.38;;;12.20;99.90;;;;;;5317910;23;20054;-88
2023/05/27 06:57:17;;;;;;;8.13;2.47;;;12.30;99.90;;;;;;5007291;28;20049;-88
2023/05/27 06:59:49;;;;;;;13.50;3.10;;;12.30;99.90;;;;;;5007901;28;20122;-89
2023/05/27 07:02:15;;;;;;;8.25;2.70;;;12.40;99.90;;;;;;5007844;28;20038;-89
2023/05/27 07:04:47;;;;;;;11.30;2.67;;;12.60;99.90;;;;;;4998217;28;20042;-88
2023/05/27 07:07:16;;;;;;;15.80;3.22;;;12.60;99.90;;;;;;5014153;28;20042;-87
2023/05/27 07:10:29;;;;;;;10.10;2.55;;;12.60;99.90;;;;;;5010200;28;20451;-87
2023/05/27 07:12:58;;;;;;;8.82;2.20;;;12.70;99.90;;;;;;5005112;28;20069;-88
2023/05/27 07:15:28;;;;;;;14.40;2.70;;;12.70;99.90;;;;;;4990477;28;20514;-88
2023/05/27 07:18:02;;;;;;;7.40;1.90;;;12.80;99.90;;;;;;5101050;22;20053;-72
2023/05/27 07:20:28;;;;;;;10.90;2.40;;;12.90;99.90;;;;;;4996737;28;20042;-72
2023/05/27 07:22:53;;;;;;;9.63;2.50;;;13.00;99.90;;;;;;4985003;28;20106;-72
2023/05/27 07:25:19;;;;;;;12.57;2.10;;;13.00;99.90;;;;;;4975678;28;20035;-72
2023/05/27 07:27:45;;;;;;;15.55;2.47;;;13.10;99.90;;;;;;4995678;28;20149;-72
2023/05/27 07:30:11;;;;;;;14.50;2.90;;;13.20;99.90;;;;;;4983979;28;20484;-72
2023/05/27 07:32:37;;;;;;;12.27;2.20;;;13.20;99.90;;;;;;4996360;28;20412;-72
2023/05/27 07:35:03;;;;;;;16.40;3.42;;;13.30;99.90;;;;;;4966812;28;20054;-72
2023/05/27 07:37:30;;;;;;;11.85;3.08;;;13.40;99.90;;;;;;4979252;28;20046;-72
2023/05/27 07:39:55;;;;;;;10.70;2.38;;;13.50;99.90;;;;;;4983329;28;20054;-72
2023/05/27 07:42:23;;;;;;;7.03;2.10;;;13.50;99.90;;;;;;4977098;28;20045;-72
2023/05/27 07:44:53;;;;;;;11.63;3.20;;;13.50;99.90;;;;;;4978805;28;20069;-72
2023/05/27 07:47:21;;;;;;;9.77;2.67;;;13.70;99.90;;;;;;4981563;28;20280;-72
2023/05/27 07:49:50;;;;;;;11.50;2.50;;;13.70;99.90;;;;;;4981780;28;20041;-72
2023/05/27 07:52:16;;;;;;;9.38;2.25;;;13.80;99.90;;;;;;4975273;28;20069;-72
2023/05/27 07:54:41;;;;;;;12.10;3.03;;;13.80;99.90;;;;;;4983996;28;20065;-72
2023/05/27 07:57:12;;;;;;;11.70;2.70;;;13.80;99.90;;;;;;4980160;28;20137;-72
2023/05/27 07:59:40;;;;;;;9.02;2.45;;;13.90;99.90;;;;;;4982060;28;20039;-72
2023/05/27 08:02:06;;;;;;;7.80;2.50;;;14.00;99.90;;;;;;4985406;28;20405;-72
2023/05/27 08:04:32;;;;;;;8.27;2.55;;;14.10;99.90;;;;;;4975723;28;20289;-72
2023/05/27 08:06:58;;;;;;;12.37;2.10;;;14.20;99.90;;;;;;4970290;28;20472;-72
2023/05/27 08:09:24;;;;;;;12.10;2.58;;;14.40;99.90;;;;;;4977695;28;20090;-72
2023/05/27 08:11:50;;;;;;;8.65;2.65;;;14.40;99.90;;;;;;4987185;28;20046;-72
2023/05/27 08:14:16;;;;;;;9.93;2.38;;;14.50;99.90;;;;;;4975944;28;20046;-72
2023/05/27 08:16:42;;;;;;;11.80;2.88;;;14.70;99.90;;;;;;5000513;28;20412;-72
2023/05/27 08:19:07;;;;;;;15.43;3.00;;;14.70;99.90;;;;;;4985119;28;20156;-72
2023/05/27 08:21:33;;;;;;;7.00;2.00;;;14.70;99.90;;;;;;4981995;28;20485;-72
2023/05/27 08:23:59;;;;;;;10.40;2.65;;;14.70;99.90;;;;;;4982233;28;20034;-72
2023/05/27 08:26:26;;;;;;;11.85;2.85;;;14.60;99.90;;;;;;4982389;28;20139;-72
2023/05/27 08:28:51;;;;;;;10.77;2.63;;;14.60;99.90;;;;;;4980619;28;20492;-72
2023/05/27 08:31:17;;;;;;;9.45;2.47;;;14.70;99.90;;;;;;4985197;28;20045;-72
2023/05/27 08:33:43;;;;;;;7.93;2.33;;;14.70;99.90;;;;;;4993820;28;20167;-72
2023/05/27 08:36:08;;;;;;;12.63;2.57;;;14.80;99.90;;;;;;4982751;28;20081;-72
2023/05/27 08:38:34;;;;;;;19.10;3.13;;;14.90;99.90;;;;;;4976637;28;20316;-72
2023/05/27 08:41:00;;;;;;;11.00;3.47;;;14.90;99.90;;;;;;4980340;28;20038;-72
2023/05/27 08:43:26;;;;;;;8.25;2.35;;;15.00;99.90;;;;;;4976620;28;20053;-72
2023/05/27 08:45:54;;;;;;;10.85;3.35;;;15.20;99.90;;;;;;4999395;28;20065;-72
2023/05/27 08:48:19;;;;;;;9.55;2.92;;;15.40;99.90;;;;;;4983902;28;20128;-72
2023/05/27 08:50:45;;;;;;;12.27;3.45;;;15.50;99.90;;;;;;4991342;28;20493;-73
2023/05/27 08:53:12;;;;;;;10.93;2.90;;;15.50;99.90;;;;;;4990677;28;20082;-72
2023/05/27 08:55:40;;;;;;;12.48;3.10;;;15.50;99.90;;;;;;4998201;28;20082;-72
2023/05/27 08:58:07;;;;;;;14.45;3.55;;;15.60;99.90;;;;;;4998523;28;20420;-73
2023/05/27 09:00:33;;;;;;;12.18;2.97;;;15.60;99.90;;;;;;4991501;28;20042;-73
2023/05/27 09:02:59;;;;;;;10.73;2.90;;;15.70;99.90;;;;;;4979375;28;20571;-72
2023/05/27 09:05:25;;;;;;;9.15;2.60;;;15.90;99.90;;;;;;4997975;28;20050;-72
2023/05/27 09:07:51;;;;;;;7.82;3.10;;;15.90;99.90;;;;;;4998873;28;20500;-72
2023/05/27 09:10:17;;;;;;;14.68;3.95;;;16.00;99.90;;;;;;4982702;28;20034;-72
2023/05/27 09:12:44;;;;;;;18.13;3.72;;;16.10;99.90;;;;;;4993359;28;20046;-72
2023/05/27 09:15:12;;;;;;;11.38;2.83;;;16.10;99.90;;;;;;4976856;28;20078;-72
2023/05/27 09:17:42;;;;;;;8.75;3.10;;;16.20;99.90;;;;;;4973694;28;20076;-71
2023/05/27 09:20:08;;;;;;;13.07;3.05;;;16.30;99.90;;;;;;4992035;28;20054;-71
2023/05/27 09:22:34;;;;;;;13.82;2.80;;;16.40;99.90;;;;;;4992797;28;20046;-71
2023/05/27 09:25:00;;;;;;;10.40;3.10;;;16.50;99.90;;;;;;4976515;28;20045;-71
2023/05/27 09:27:27;;;;;;;10.32;4.07;;;16.60;99.90;;;;;;4975444;28;20051;-71
2023/05/27 09:29:53;;;;;;;10.88;2.72;;;16.70;99.90;;;;;;4985065;28;20125;-71
2023/05/27 09:32:31;;;;;;;18.17;3.13;;;16.80;99.90;;;;;;4966093;28;20118;-72
2023/05/27 09:35:01;;;;;;;15.38;2.78;;;16.80;99.90;;;;;;4998991;28;20486;-71
2023/05/27 09:37:34;;;;;;;15.20;3.60;;;16.80;99.90;;;;;;4988857;28;20053;-71
2023/05/27 09:40:07;;;;;;;10.07;3.10;;;16.80;99.90;;;;;;4989391;28;20353;-71
2023/05/27 09:42:43;;;;;;;12.57;2.92;;;16.90;99.90;;;;;;4977192;28;20417;-71
2023/05/27 09:45:14;;;;;;;13.70;3.90;;;17.00;99.90;;;;;;4974059;28;20039;-71
2023/05/27 09:47:46;;;;;;;8.15;3.42;;;17.10;99.90;;;;;;4974169;28;20050;-71
2023/05/27 09:50:15;;;;;;;11.65;3.28;;;17.30;99.90;;;;;;4976218;28;20072;-71
2023/05/27 09:52:43;;;;;;;11.02;2.53;;;17.40;99.90;;;;;;4972488;28;20045;-71
2023/05/27 09:55:11;;;;;;;16.75;3.35;;;17.50;99.90;;;;;;5004004;28;20059;-72
2023/05/27 09:57:36;;;;;;;11.15;3.25;;;17.50;99.90;;;;;;4974397;28;20031;-72
2023/05/27 10:00:17;;;;;;;15.95;3.63;;;17.50;99.90;;;;;;4972756;28;20058;-71
2023/05/27 10:02:48;;;;;;;7.93;3.55;;;17.60;99.90;;;;;;4979286;28;20047;-71
2023/05/27 10:05:16;;;;;;;12.10;3.50;;;17.70;99.90;;;;;;4997082;28;20042;-71
2023/05/27 10:07:43;;;;;;;12.13;3.25;;;17.70;99.90;;;;;;4979025;28;20046;-71
2023/05/27 10:10:12;;;;;;;15.25;3.97;;;17.80;99.90;;;;;;4961178;28;20046;-71
2023/05/27 10:12:39;;;;;;;13.88;3.30;;;17.80;99.90;;;;;;4977823;28;20298;-71
2023/05/27 10:15:07;;;;;;;9.18;2.75;;;17.90;99.90;;;;;;4977144;28;20105;-71
2023/05/27 10:17:52;;;;;;;9.88;3.42;;;18.00;99.90;;;;;;4971244;28;20054;-71
2023/05/27 10:20:42;;;;;;;12.63;3.15;;;18.20;99.90;;;;;;4992268;28;20042;-71
2023/05/27 10:23:15;;;;;;;8.43;2.83;;;18.20;99.90;;;;;;4997808;28;20042;-71
2023/05/27 10:25:50;;;;;;;11.25;3.45;;;18.20;99.90;;;;;;4976401;28;20145;-71
2023/05/27 10:28:27;;;;;;;11.50;3.13;;;18.20;99.90;;;;;;4982978;28;20496;-71
2023/05/27 10:31:02;;;;;;;8.27;3.45;;;18.20;99.90;;;;;;4983112;28;20066;-72
2023/05/27 10:33:33;;;;;;;12.60;3.10;;;18.30;99.90;;;;;;4977747;28;20038;-72
2023/05/27 10:36:12;;;;;;;9.98;3.33;;;18.40;99.90;;;;;;4972976;28;20046;-71
2023/05/27 10:38:38;;;;;;;10.40;3.13;;;18.60;99.90;;;;;;4991705;28;20199;-72
2023/05/27 10:41:06;;;;;;;10.73;3.67;;;18.70;99.90;;;;;;4982810;28;20053;-71
2023/05/27 10:43:35;;;;;;;11.85;3.25;;;18.80;99.90;;;;;;4971722;28;20047;-71
2023/05/27 10:46:09;;;;;;;9.48;3.15;;;18.80;99.90;;;;;;4970723;28;20042;-71
2023/05/27 10:48:35;;;;;;;11.45;3.10;;;18.90;99.90;;;;;;4981006;28;20413;-71
2023/05/27 10:51:01;;;;;;;13.32;3.42;;;19.00;99.90;;;;;;4972787;28;20436;-72
2023/05/27 10:53:28;;;;;;;11.02;3.20;;;19.10;99.90;;;;;;4977119;28;20053;-71
2023/05/27 10:55:58;;;;;;;13.35;3.28;;;19.20;99.90;;;;;;4980159;28;20122;-71
2023/05/27 10:58:27;;;;;;;9.15;3.28;;;19.30;99.90;;;;;;4982855;28;20089;-71
2023/05/27 11:00:54;;;;;;;12.85;3.20;;;19.40;99.90;;;;;;4974985;28;20790;-71
2023/05/27 11:03:27;;;;;;;12.65;3.03;;;19.50;99.90;;;;;;4973176;28;20051;-72
2023/05/27 11:06:06;;;;;;;14.30;3.50;;;19.60;99.90;;;;;;4981845;28;20396;-72
2023/05/27 11:08:33;;;;;;;11.80;3.58;;;19.70;99.90;;;;;;4991285;28;20082;-72
2023/05/27 11:11:05;;;;;;;13.52;3.10;;;19.80;99.90;;;;;;4982342;28;20049;-71
2023/05/27 11:13:34;;;;;;;10.88;3.33;;;19.80;99.90;;;;;;4979944;28;20042;-71
2023/05/27 11:16:01;;;;;;;8.50;3.25;;;19.80;99.90;;;;;;4976616;28;20054;-72
2023/05/27 11:18:41;;;;;;;10.05;3.78;;;19.90;99.90;;;;;;4998092;28;20038;-71
2023/05/27 11:21:08;;;;;;;23.75;7.97;;;19.90;99.90;;;;;;4989959;28;20042;-71
2023/05/27 11:23:37;;;;;;;9.15;3.58;;;20.00;99.90;;;;;;4978658;28;20168;-71
2023/05/27 11:26:03;;;;;;;11.70;3.38;;;20.10;99.90;;;;;;4979146;28;20074;-71
2023/05/27 11:28:29;;;;;;;10.30;3.47;;;20.30;99.90;;;;;;4994251;28;20085;-71
2023/05/27 11:31:04;;;;;;;14.52;3.58;;;20.30;99.90;;;;;;4977068;28;20491;-71
2023/05/27 11:33:32;;;;;;;10.93;3.67;;;20.30;99.90;;;;;;4979289;28;20034;-71
2023/05/27 11:36:07;;;;;;;13.05;3.17;;;20.40;99.90;;;;;;4976575;28;20045;-71
2023/05/27 11:38:51;;;;;;;7.73;2.53;;;20.50;99.90;;;;;;4993284;28;20420;-71
2023/05/27 11:41:17;;;;;;;12.07;3.08;;;20.60;99.90;;;;;;4999259;28;20046;-72
2023/05/27 11:43:59;;;;;;;10.90;3.38;;;20.60;99.90;;;;;;4976965;28;20046;-72
2023/05/27 11:46:44;;;;;;;8.23;3.00;;;20.60;99.90;;;;;;4992369;28;20046;-71
2023/05/27 11:49:11;;;;;;;9.32;2.75;;;20.60;99.90;;;;;;4969796;28;20038;-71
2023/05/27 11:51:42;;;;;;;10.02;3.38;;;20.60;99.90;;;;;;4970259;28;20056;-71
2023/05/27 11:54:17;;;;;;;11.05;3.63;;;20.70;99.90;;;;;;4974178;28;20456;-71
2023/05/27 11:56:42;;;;;;;12.52;3.22;;;20.80;99.90;;;;;;4977044;28;20047;-71
2023/05/27 11:59:08;;;;;;;9.55;2.92;;;20.90;99.90;;;;;;4973795;28;20073;-72
2023/05/27 12:01:33;;;;;;;15.85;3.40;;;21.00;99.90;;;;;;4973602;28;20499;-71
2023/05/27 12:03:59;;;;;;;9.45;2.97;;;21.10;99.90;;;;;;4976158;28;20567;-71
2023/05/27 12:06:25;;;;;;;10.20;3.05;;;21.20;99.90;;;;;;4975750;28;20139;-72
2023/05/27 12:08:53;;;;;;;8.55;2.78;;;21.20;99.50;;;;;;4982555;28;20035;-71
2023/05/27 12:11:19;;;;;;;11.55;3.42;;;21.20;99.80;;;;;;4994386;28;20042;-72
2023/05/27 12:13:44;;;;;;;7.35;3.10;;;21.30;99.30;;;;;;4978816;28;20035;-71
2023/05/27 12:16:11;;;;;;;11.02;3.15;;;21.40;98.90;;;;;;4979968;28;20291;-72
2023/05/27 12:18:36;;;;;;;;;;;21.50;99.00;;;;;;4985984;28;20038;-71
2023/05/27 12:21:02;;;;;;;15.63;3.28;;;21.60;97.40;;;;;;4975804;28;20013;-72
2023/05/27 12:23:28;;;;;;;12.30;2.78;;;21.70;98.60;;;;;;4981851;28;20449;-72
2023/05/27 12:25:54;;;;;;;8.90;3.35;;;21.80;98.00;;;;;;4984451;28;20042;-71
2023/05/27 12:28:19;;;;;;;;;;;21.90;97.70;;;;;;4996222;28;20046;-71
2023/05/27 12:30:47;;;;;;;9.82;3.20;;;22.00;95.30;;;;;;4999639;28;19941;-71
2023/05/27 12:33:13;;;;;;;11.30;3.20;;;21.90;96.30;;;;;;4984728;28;20046;-71
2023/05/27 12:35:39;;;;;;;10.02;3.80;;;21.80;96.00;;;;;;4976716;28;20050;-71
2023/05/27 12:38:05;;;;;;;;;;;22.00;96.20;;;;;;4979315;28;20049;-71
2023/05/27 12:40:33;;;;;;;9.23;2.97;;;22.20;96.10;;;;;;4978817;28;19918;-71
2023/05/27 12:42:59;;;;;;;7.63;3.25;;;22.30;96.10;;;;;;4982274;28;20039;-71
2023/05/27 12:45:25;;;;;;;;;;;22.40;95.20;;;;;;5003433;28;20101;-71
2023/05/27 12:47:52;;;;;;;8.80;3.33;;;22.50;95.10;;;;;;4981583;28;19921;-71
2023/05/27 12:50:18;;;;;;;9.98;3.03;;;22.60;93.90;;;;;;4990438;28;20382;-72
2023/05/27 12:52:47;;;;;;;;;;;22.60;93.00;;;;;;4989014;22;20049;-70
2023/05/27 12:55:14;;;;;;;10.20;2.55;;;22.60;92.70;;;;;;4977166;28;19925;-70